createdAt,value
2022-08-14T00:02:31.459Z,6.60
2022-08-14T00:05:00.352Z,7.57
2022-08-14T00:07:30.909Z,6.70
2022-08-14T00:10:49.378Z,7.15
2022-08-14T00:12:57.960Z,7.35
2022-08-14T00:15:37.364Z,7.40
2022-08-14T00:18:07.430Z,7.13
2022-08-14T00:20:43.370Z,7.05
2022-08-14T00:23:16.383Z,7.20
2022-08-14T00:25:53.878Z,7.18
2022-08-14T00:28:36.750Z,7.57
2022-08-14T00:31:14.514Z,7.55
2022-08-14T00:33:52.084Z,6.88
2022-08-14T00:36:35.276Z,7.68
2022-08-14T00:39:14.111Z,8.60
2022-08-14T00:41:43.525Z,8.05
2022-08-14T00:44:13.438Z,8.65
2022-08-14T00:46:45.577Z,8.10
2022-08-14T00:49:15.070Z,7.72
2022-08-14T00:51:45.765Z,7.95
2022-08-14T00:54:22.050Z,8.27
2022-08-14T00:56:55.578Z,7.85
2022-08-14T00:59:28.776Z,8.30
2022-08-14T01:02:02.896Z,7.20
2022-08-14T01:04:37.822Z,7.13
2022-08-14T01:07:22.880Z,6.70
2022-08-14T01:09:54.471Z,6.88
2022-08-14T01:12:27.320Z,7.45
2022-08-14T01:15:03.180Z,6.85
2022-08-14T01:17:52.128Z,6.47
2022-08-14T01:20:41.015Z,6.22
2022-08-14T01:23:16.408Z,6.03
2022-08-14T01:25:52.204Z,6.32
2022-08-14T01:28:34.241Z,6.82
2022-08-14T01:31:14.586Z,6.10
2022-08-14T01:35:16.054Z,6.60
2022-08-14T01:36:39.213Z,7.03
2022-08-14T01:39:15.187Z,6.50
2022-08-14T01:41:46.837Z,6.80
2022-08-14T01:44:32.881Z,6.45
2022-08-14T01:47:21.501Z,6.72
2022-08-14T01:49:59.416Z,6.75
2022-08-14T01:52:34.639Z,6.82
2022-08-14T01:55:20.126Z,6.85
2022-08-14T01:58:01.854Z,7.18
2022-08-14T02:00:39.335Z,6.57
2022-08-14T02:03:09.489Z,6.65
2022-08-14T02:05:39.036Z,7.25
2022-08-14T02:08:10.365Z,7.05
2022-08-14T02:10:46.099Z,7.05
2022-08-14T02:13:21.121Z,7.10
2022-08-14T02:15:51.629Z,7.15
2022-08-14T02:18:21.893Z,7.40
2022-08-14T02:20:53.381Z,7.65
2022-08-14T02:23:31.941Z,7.78
2022-08-14T02:26:24.063Z,8.23
2022-08-14T02:29:00.484Z,7.60
2022-08-14T02:31:42.118Z,8.15
2022-08-14T02:34:22.474Z,7.93
2022-08-14T02:37:05.227Z,7.68
2022-08-14T02:39:37.624Z,7.78
2022-08-14T02:42:13.265Z,8.35
2022-08-14T02:44:49.057Z,8.50
2022-08-14T02:47:21.350Z,8.35
2022-08-14T02:49:56.736Z,7.93
2022-08-14T02:52:56.596Z,8.20
2022-08-14T02:55:15.538Z,8.57
2022-08-14T02:57:58.185Z,8.27
2022-08-14T03:00:39.889Z,8.30
2022-08-14T03:03:10.184Z,8.10
2022-08-14T03:05:41.207Z,8.82
2022-08-14T03:08:15.949Z,8.65
2022-08-14T03:10:50.095Z,8.50
2022-08-14T03:13:22.056Z,8.50
2022-08-14T03:15:55.858Z,9.00
2022-08-14T03:18:31.545Z,9.15
2022-08-14T03:21:03.960Z,8.98
2022-08-14T03:23:36.483Z,9.52
2022-08-14T03:26:12.583Z,8.73
2022-08-14T03:28:51.371Z,8.60
2022-08-14T03:31:25.906Z,9.23
2022-08-14T03:33:56.177Z,9.80
2022-08-14T03:37:51.891Z,9.93
2022-08-14T03:39:24.231Z,10.55
2022-08-14T03:41:56.222Z,9.82
2022-08-14T03:45:30.729Z,10.13
2022-08-14T03:47:20.401Z,11.45
2022-08-14T03:49:54.837Z,12.20
2022-08-14T03:52:40.557Z,11.38
2022-08-14T03:55:16.641Z,11.40
2022-08-14T03:57:48.629Z,11.20
2022-08-14T04:00:44.450Z,10.55
2022-08-14T04:03:23.536Z,10.82
2022-08-14T04:05:55.337Z,10.60
2022-08-14T04:08:30.632Z,10.30
2022-08-14T04:11:10.351Z,10.98
2022-08-14T04:13:42.069Z,10.18
2022-08-14T04:16:15.411Z,10.60
2022-08-14T04:18:47.295Z,10.32
2022-08-14T04:21:24.792Z,9.82
2022-08-14T04:23:57.226Z,9.50
2022-08-14T04:26:42.737Z,9.93
2022-08-14T04:29:14.939Z,10.45
2022-08-14T04:33:01.834Z,10.88
2022-08-14T04:34:36.665Z,10.95
2022-08-14T04:37:26.743Z,11.35
2022-08-14T04:40:15.240Z,11.60
2022-08-14T04:43:01.794Z,11.70
2022-08-14T04:45:38.977Z,10.57
2022-08-14T04:48:38.934Z,11.57
2022-08-14T04:51:07.653Z,11.40
2022-08-14T04:53:43.114Z,10.82
2022-08-14T04:56:33.869Z,11.32
2022-08-14T04:59:10.452Z,10.63
2022-08-14T05:01:48.677Z,10.43
2022-08-14T05:04:25.736Z,10.30
2022-08-14T05:06:55.576Z,9.25
2022-08-14T05:09:28.976Z,9.35
2022-08-14T05:12:54.929Z,9.63
2022-08-14T05:14:54.672Z,10.23
2022-08-14T05:17:32.121Z,9.55
2022-08-14T05:21:54.402Z,9.65
2022-08-14T05:23:03.830Z,10.25
2022-08-14T05:25:38.293Z,10.60
2022-08-14T05:28:14.257Z,9.93
2022-08-14T05:30:48.056Z,9.77
2022-08-14T05:33:18.917Z,9.80
2022-08-14T05:35:51.332Z,9.85
2022-08-14T05:38:31.678Z,9.30
2022-08-14T05:41:02.992Z,9.85
2022-08-14T05:43:44.261Z,9.63
2022-08-14T05:46:23.167Z,9.27
2022-08-14T05:48:53.397Z,9.27
2022-08-14T05:51:25.428Z,8.65
2022-08-14T05:54:00.300Z,8.68
2022-08-14T05:56:39.903Z,9.20
2022-08-14T05:59:12.623Z,9.57
2022-08-14T06:01:48.288Z,9.13
2022-08-14T06:04:20.342Z,9.20
2022-08-14T06:06:51.701Z,9.18
2022-08-14T06:09:26.236Z,9.35
2022-08-14T06:11:56.965Z,8.80
2022-08-14T06:14:26.610Z,9.27
2022-08-14T06:16:57.114Z,9.57
2022-08-14T06:19:26.649Z,9.57
2022-08-14T06:21:58.458Z,9.88
2022-08-14T06:24:30.682Z,10.45
2022-08-14T06:27:10.115Z,10.10
2022-08-14T06:29:39.680Z,10.52
2022-08-14T06:32:36.862Z,10.63
2022-08-14T06:35:02.441Z,10.32
2022-08-14T06:37:44.328Z,10.23
2022-08-14T06:40:26.091Z,10.27
2022-08-14T06:43:00.422Z,9.80
2022-08-14T06:45:32.542Z,10.05
2022-08-14T06:48:01.737Z,9.77
2022-08-14T06:50:33.572Z,9.25
2022-08-14T06:53:03.936Z,9.80
2022-08-14T06:55:37.108Z,8.80
2022-08-14T06:58:28.664Z,9.05
2022-08-14T07:01:15.151Z,8.55
2022-08-14T07:04:01.691Z,8.65
2022-08-14T07:06:45.621Z,8.60
2022-08-14T07:09:23.149Z,8.60
2022-08-14T07:11:52.223Z,7.85
2022-08-14T07:14:21.004Z,8.82
2022-08-14T07:16:49.481Z,8.82
2022-08-14T07:19:20.965Z,8.35
2022-08-14T07:21:50.336Z,8.50
2022-08-14T07:24:21.797Z,8.98
2022-08-14T07:26:55.019Z,8.40
2022-08-14T07:29:26.257Z,9.05
2022-08-14T07:31:57.517Z,8.05
2022-08-14T07:34:40.939Z,8.05
2022-08-14T07:37:10.857Z,8.10
2022-08-14T07:39:43.953Z,8.02
2022-08-14T07:42:12.616Z,8.75
2022-08-14T07:44:45.824Z,8.00
2022-08-14T07:47:16.615Z,8.57
2022-08-14T07:49:57.262Z,9.00
2022-08-14T07:52:30.942Z,9.50
2022-08-14T07:55:03.088Z,8.13
2022-08-14T07:57:38.687Z,8.23
2022-08-14T08:00:29.962Z,7.90
2022-08-14T08:03:01.933Z,7.97
2022-08-14T08:05:35.398Z,7.78
2022-08-14T08:08:26.981Z,7.32
2022-08-14T08:11:03.609Z,7.75
2022-08-14T08:13:49.125Z,7.60
2022-08-14T08:16:25.174Z,7.30
2022-08-14T08:19:14.030Z,7.05
2022-08-14T08:21:47.582Z,6.90
2022-08-14T08:24:19.838Z,7.40
2022-08-14T08:26:51.667Z,6.80
2022-08-14T08:29:28.277Z,6.90
2022-08-14T08:32:01.741Z,7.38
2022-08-14T08:34:46.709Z,6.78
2022-08-14T08:37:16.473Z,6.75
2022-08-14T08:40:02.715Z,6.93
2022-08-14T08:42:38.843Z,7.38
2022-08-14T08:45:12.128Z,6.88
2022-08-14T08:47:41.992Z,7.60
2022-08-14T08:53:02.821Z,8.38
2022-08-14T08:55:38.603Z,7.10
2022-08-14T08:58:16.322Z,6.90
2022-08-14T09:00:54.236Z,6.90
2022-08-14T09:03:27.278Z,6.38
2022-08-14T09:05:59.048Z,6.28
2022-08-14T09:08:32.969Z,6.30
2022-08-14T09:11:19.406Z,7.10
2022-08-14T09:13:54.424Z,6.90
2022-08-14T09:16:25.560Z,6.70
2022-08-14T09:18:55.454Z,6.72
2022-08-14T09:21:31.064Z,6.88
2022-08-14T09:24:29.442Z,6.72
2022-08-14T09:26:53.296Z,7.68
2022-08-14T09:29:23.843Z,7.30
2022-08-14T09:31:58.049Z,6.80
2022-08-14T09:34:58.492Z,6.82
2022-08-14T09:37:46.917Z,6.65
2022-08-14T09:40:29.516Z,6.50
2022-08-14T09:43:10.734Z,7.50
2022-08-14T09:45:53.033Z,6.43
2022-08-14T09:48:30.009Z,6.90
2022-08-14T09:54:18.203Z,7.32
2022-08-14T09:56:57.198Z,5.78
2022-08-14T09:59:40.769Z,6.53
2022-08-14T10:02:28.488Z,6.10
2022-08-14T10:05:06.653Z,7.00
2022-08-14T10:07:41.235Z,6.10
2022-08-14T10:10:34.639Z,6.10
2022-08-14T10:13:06.829Z,5.78
2022-08-14T10:15:47.325Z,5.57
2022-08-14T10:18:21.780Z,6.32
2022-08-14T10:20:57.994Z,5.78
2022-08-14T10:23:30.063Z,5.25
2022-08-14T10:26:07.654Z,5.22
2022-08-14T10:29:14.031Z,5.50
2022-08-14T10:31:44.744Z,5.53
2022-08-14T10:34:29.189Z,5.30
2022-08-14T10:37:14.715Z,5.30
2022-08-14T10:40:02.193Z,5.20
2022-08-14T10:42:38.995Z,5.03
2022-08-14T10:45:21.621Z,4.95
2022-08-14T10:48:08.868Z,4.88
2022-08-14T10:50:51.600Z,5.45
2022-08-14T10:53:33.164Z,5.25
2022-08-14T10:56:21.550Z,4.97
2022-08-14T10:59:03.416Z,5.35
2022-08-14T11:01:41.142Z,5.03
2022-08-14T11:04:30.564Z,5.45
2022-08-14T11:07:02.651Z,5.05
2022-08-14T11:09:34.378Z,5.05
2022-08-14T11:12:34.796Z,5.30
2022-08-14T11:15:02.235Z,5.15
2022-08-14T11:17:33.093Z,5.10
2022-08-14T11:20:03.644Z,5.40
2022-08-14T11:23:03.081Z,5.05
2022-08-14T11:25:43.949Z,5.35
2022-08-14T11:28:19.005Z,4.95
2022-08-14T11:30:54.124Z,4.82
2022-08-14T11:33:43.221Z,4.60
2022-08-14T11:36:17.864Z,4.53
2022-08-14T11:38:51.536Z,4.70
2022-08-14T11:41:22.969Z,4.97
2022-08-14T11:43:56.239Z,4.82
2022-08-14T11:46:30.259Z,4.80
2022-08-14T11:49:09.555Z,4.35
2022-08-14T11:51:52.971Z,5.43
2022-08-14T11:54:34.004Z,4.90
2022-08-14T11:57:05.959Z,5.00
2022-08-14T11:59:34.835Z,5.30
2022-08-14T12:03:01.298Z,4.75
2022-08-14T12:05:13.334Z,4.50
2022-08-14T12:07:50.546Z,4.65
2022-08-14T12:10:37.138Z,4.25
2022-08-14T12:13:17.520Z,4.00
2022-08-14T12:15:52.616Z,4.05
2022-08-14T12:18:32.800Z,5.00
2022-08-14T12:21:19.003Z,4.35
2022-08-14T12:23:50.379Z,3.90
2022-08-14T12:26:39.095Z,8.25
2022-08-14T12:29:10.784Z,4.18
2022-08-14T12:32:00.413Z,4.38
2022-08-14T12:34:37.278Z,4.25
2022-08-14T12:37:10.353Z,4.32
2022-08-14T12:39:45.883Z,4.22
2022-08-14T12:42:34.147Z,4.13
2022-08-14T12:45:04.276Z,3.78
2022-08-14T12:47:33.455Z,4.28
2022-08-14T12:50:03.197Z,4.43
2022-08-14T12:52:45.369Z,4.38
2022-08-14T12:55:44.125Z,5.05
2022-08-14T12:59:12.716Z,4.93
2022-08-14T13:01:59.433Z,5.45
2022-08-14T13:04:35.420Z,5.05
2022-08-14T13:07:09.007Z,4.90
2022-08-14T13:09:38.143Z,4.40
2022-08-14T13:12:32.350Z,4.47
2022-08-14T13:15:08.949Z,4.70
2022-08-14T13:17:43.440Z,4.65
2022-08-14T13:20:24.709Z,4.20
2022-08-14T13:22:56.726Z,4.38
2022-08-14T13:25:27.495Z,4.47
2022-08-14T13:28:00.394Z,4.20
2022-08-14T13:30:30.785Z,4.30
2022-08-14T13:33:07.024Z,4.15
2022-08-14T13:35:47.805Z,4.60
2022-08-14T13:38:22.228Z,4.88
2022-08-14T13:40:56.167Z,4.65
2022-08-14T13:43:36.478Z,4.88
2022-08-14T13:46:07.628Z,6.25
2022-08-14T13:48:43.942Z,5.40
2022-08-14T13:51:18.214Z,6.18
2022-08-14T13:54:08.373Z,6.63
2022-08-14T13:56:42.359Z,6.90
2022-08-14T13:59:12.498Z,6.85
2022-08-14T14:01:52.133Z,8.23
2022-08-14T14:04:31.192Z,7.82
2022-08-14T14:07:04.410Z,7.45
2022-08-14T14:09:37.682Z,8.93
2022-08-14T14:12:37.555Z,10.20
2022-08-14T14:15:11.202Z,9.80
2022-08-14T14:17:43.900Z,9.55
2022-08-14T14:20:15.299Z,16.77
2022-08-14T14:23:09.502Z,21.80
2022-08-14T14:25:51.253Z,21.67
2022-08-14T14:28:32.266Z,17.55
2022-08-14T14:31:05.984Z,16.75
2022-08-14T14:33:47.849Z,16.73
2022-08-14T14:36:21.737Z,14.90
2022-08-14T14:38:56.465Z,18.80
2022-08-14T14:41:37.679Z,15.63
2022-08-14T14:44:09.089Z,16.75
2022-08-14T14:46:41.633Z,15.02
2022-08-14T14:49:15.075Z,12.50
2022-08-14T14:51:51.482Z,11.40
2022-08-14T14:54:31.267Z,10.80
2022-08-14T14:57:02.401Z,10.18
2022-08-14T14:59:33.263Z,6.90
2022-08-14T15:02:08.175Z,7.55
2022-08-14T15:04:43.574Z,6.80
2022-08-14T15:07:13.159Z,7.22
2022-08-14T15:09:45.255Z,8.15
2022-08-14T15:12:56.603Z,5.53
2022-08-14T15:15:08.925Z,6.07
2022-08-14T15:17:41.997Z,5.57
2022-08-14T15:20:17.542Z,5.20
2022-08-14T15:23:12.244Z,5.35
2022-08-14T15:25:42.033Z,5.88
2022-08-14T15:28:21.001Z,5.65
2022-08-14T15:30:57.994Z,5.57
2022-08-14T15:34:33.986Z,6.28
2022-08-14T15:36:36.215Z,5.80
2022-08-14T15:39:06.246Z,5.90
2022-08-14T15:41:41.839Z,6.10
2022-08-14T15:44:25.224Z,6.05
2022-08-14T15:46:55.957Z,5.68
2022-08-14T15:49:34.517Z,6.10
2022-08-14T15:52:07.833Z,6.07
2022-08-14T15:54:38.818Z,5.90
2022-08-14T15:57:10.858Z,6.03
2022-08-14T15:59:58.697Z,6.43
2022-08-14T16:02:28.727Z,5.80
2022-08-14T16:04:59.644Z,6.00
2022-08-14T16:07:31.124Z,6.75
2022-08-14T16:10:27.654Z,5.85
2022-08-14T16:12:50.671Z,6.13
2022-08-14T16:15:21.452Z,6.10
2022-08-14T16:17:56.585Z,5.80
2022-08-14T16:20:42.153Z,6.18
2022-08-14T16:23:18.404Z,6.88
2022-08-14T16:25:52.657Z,6.60
2022-08-14T16:28:27.846Z,6.40
2022-08-14T16:30:57.700Z,7.30
2022-08-14T16:33:27.983Z,6.90
2022-08-14T16:36:30.572Z,7.05
2022-08-14T16:39:04.076Z,6.63
2022-08-14T16:41:32.914Z,6.53
2022-08-14T16:44:13.585Z,7.20
2022-08-14T16:46:55.266Z,7.25
2022-08-14T16:50:03.076Z,7.93
2022-08-14T16:52:43.408Z,7.80
2022-08-14T16:55:08.875Z,7.80
2022-08-14T16:57:50.020Z,7.60
2022-08-14T17:00:32.678Z,7.53
2022-08-14T17:03:08.461Z,7.68
2022-08-14T17:05:43.308Z,6.85
2022-08-14T17:08:31.812Z,7.15
2022-08-14T17:11:11.201Z,8.35
2022-08-14T17:13:58.445Z,7.55
2022-08-14T17:16:35.936Z,8.25
2022-08-14T17:19:11.565Z,8.30
2022-08-14T17:21:51.658Z,8.70
2022-08-14T17:24:55.922Z,7.80
2022-08-14T17:27:18.139Z,8.02
2022-08-14T17:29:56.614Z,8.20
2022-08-14T17:32:55.949Z,7.72
2022-08-14T17:35:57.594Z,8.00
2022-08-14T17:38:38.703Z,7.43
2022-08-14T17:41:32.686Z,6.90
2022-08-14T17:44:34.218Z,7.07
2022-08-14T17:47:28.018Z,7.40
2022-08-14T17:50:58.878Z,7.28
2022-08-14T17:52:52.594Z,7.15
2022-08-14T17:56:01.326Z,7.60
2022-08-14T17:58:20.746Z,7.60
2022-08-14T18:00:57.871Z,6.90
2022-08-14T18:03:46.416Z,7.72
2022-08-14T18:06:38.492Z,7.22
2022-08-14T18:09:25.930Z,6.50
2022-08-14T18:11:57.770Z,6.72
2022-08-14T18:14:48.986Z,6.95
2022-08-14T18:17:25.371Z,6.97
2022-08-14T18:19:59.595Z,7.10
2022-08-14T18:22:39.444Z,6.68
2022-08-14T18:25:18.007Z,6.00
2022-08-14T18:27:51.504Z,6.25
2022-08-14T18:30:33.105Z,6.20
2022-08-14T18:33:20.996Z,6.25
2022-08-14T18:35:59.753Z,5.90
2022-08-14T18:38:55.131Z,5.88
2022-08-14T18:41:37.050Z,5.70
2022-08-14T18:44:10.857Z,5.85
2022-08-14T18:47:15.972Z,5.00
2022-08-14T18:50:26.134Z,4.80
2022-08-14T18:53:07.359Z,5.57
2022-08-14T18:55:54.104Z,4.68
2022-08-14T18:58:31.692Z,5.38
2022-08-14T19:01:06.484Z,5.00
2022-08-14T19:03:57.763Z,4.90
2022-08-14T19:06:56.336Z,4.88
2022-08-14T19:09:58.453Z,4.50
2022-08-14T19:13:12.003Z,4.68
2022-08-14T19:15:44.564Z,4.75
2022-08-14T19:18:26.380Z,4.80
2022-08-14T19:20:59.938Z,4.90
2022-08-14T19:23:42.413Z,4.55
2022-08-14T19:26:34.211Z,4.20
2022-08-14T19:29:25.854Z,4.20
2022-08-14T19:31:58.973Z,4.47
2022-08-14T19:34:52.535Z,4.60
2022-08-14T19:37:47.922Z,4.60
2022-08-14T19:40:38.072Z,4.38
2022-08-14T19:43:09.507Z,4.40
2022-08-14T19:45:40.699Z,4.53
2022-08-14T19:48:15.853Z,4.40
2022-08-14T19:50:47.101Z,4.22
2022-08-14T19:53:19.025Z,4.30
2022-08-14T19:56:02.609Z,4.50
2022-08-14T19:58:54.970Z,4.90
2022-08-14T20:01:38.120Z,4.57
2022-08-14T20:04:22.876Z,4.60
2022-08-14T20:07:08.942Z,8.20
2022-08-14T20:11:06.337Z,4.80
2022-08-14T20:13:07.973Z,4.28
2022-08-14T20:15:47.143Z,4.97
2022-08-14T20:18:49.126Z,4.90
2022-08-14T20:21:18.718Z,4.85
2022-08-14T20:23:49.960Z,5.10
2022-08-14T20:26:30.534Z,4.80
2022-08-14T20:29:07.121Z,4.70
2022-08-14T20:31:38.375Z,4.80
2022-08-14T20:34:24.942Z,4.90
2022-08-14T20:37:09.576Z,5.05
2022-08-14T20:39:44.987Z,5.10
2022-08-14T20:42:43.890Z,4.72
2022-08-14T20:45:24.817Z,5.32
2022-08-14T20:48:07.132Z,4.60
2022-08-14T20:50:45.167Z,4.80
2022-08-14T20:53:33.711Z,4.57
2022-08-14T20:56:28.918Z,4.78
2022-08-14T20:58:54.274Z,4.80
2022-08-14T21:01:36.003Z,5.05
2022-08-14T21:04:22.737Z,4.60
2022-08-14T21:07:25.117Z,4.93
2022-08-14T21:10:05.608Z,4.80
2022-08-14T21:12:35.908Z,5.03
2022-08-14T21:15:11.113Z,4.65
2022-08-14T21:17:46.106Z,4.53
2022-08-14T21:20:26.084Z,4.90
2022-08-14T21:23:00.552Z,4.72
2022-08-14T21:25:34.653Z,5.47
2022-08-14T21:28:07.316Z,5.03
2022-08-14T21:30:51.115Z,4.57
2022-08-14T21:33:22.811Z,5.00
2022-08-14T21:35:55.732Z,4.93
2022-08-14T21:38:34.252Z,5.00
2022-08-14T21:41:42.325Z,5.30
2022-08-14T21:44:17.098Z,5.32
2022-08-14T21:46:49.845Z,5.38
2022-08-14T21:49:24.566Z,5.07
2022-08-14T21:52:05.230Z,5.03
2022-08-14T21:54:53.474Z,5.47
2022-08-14T21:57:56.499Z,5.53
2022-08-14T22:00:35.415Z,5.57
2022-08-14T22:03:09.047Z,5.70
2022-08-14T22:05:45.178Z,5.82
2022-08-14T22:08:26.790Z,5.95
2022-08-14T22:10:59.216Z,5.90
2022-08-14T22:13:32.568Z,5.80
2022-08-14T22:16:59.969Z,5.90
2022-08-14T22:19:03.390Z,6.05
2022-08-14T22:21:34.274Z,6.53
2022-08-14T22:24:10.546Z,6.20
2022-08-14T22:26:44.889Z,6.07
2022-08-14T22:29:16.866Z,6.00
2022-08-14T22:31:48.861Z,6.32
2022-08-14T22:34:19.422Z,6.43
2022-08-14T22:36:49.699Z,6.07
2022-08-14T22:40:17.678Z,6.22
2022-08-14T22:42:24.206Z,6.30
2022-08-14T22:44:56.803Z,6.20
2022-08-14T22:47:40.483Z,6.13
2022-08-14T22:50:30.507Z,6.40
2022-08-14T22:53:05.682Z,6.57
2022-08-14T22:55:42.006Z,6.68
2022-08-14T22:58:30.370Z,6.18
2022-08-14T23:01:11.998Z,6.78
2022-08-14T23:03:49.754Z,6.50
2022-08-14T23:07:02.933Z,6.72
2022-08-14T23:09:56.989Z,6.90
2022-08-14T23:12:35.033Z,6.80
2022-08-14T23:15:07.333Z,6.40
2022-08-14T23:17:40.879Z,7.13
2022-08-14T23:20:19.054Z,6.88
2022-08-14T23:22:51.281Z,7.05
2022-08-14T23:25:58.507Z,7.03
2022-08-14T23:28:33.549Z,7.35
2022-08-14T23:31:34.715Z,7.80
2022-08-14T23:34:20.296Z,7.28
2022-08-14T23:36:59.550Z,7.88
2022-08-14T23:39:39.266Z,8.65
2022-08-14T23:42:18.046Z,8.80
2022-08-14T23:44:59.123Z,9.70
2022-08-14T23:47:30.939Z,10.00
2022-08-14T23:50:38.565Z,9.75
2022-08-14T23:53:28.577Z,9.52
2022-08-14T23:56:10.051Z,9.20
2022-08-14T23:58:49.115Z,8.18
